Time;durP1;ratioP1;P1;durP2;ratioP2;P2;SDS_P1;SDS_P2;PMS_P1;PMS_P2;Temp;Humidity;BMP_temperature;BMP_pressure;BME280_temperature;BME280_humidity;BME280_pressure;Samples;Min_cycle;Max_cycle;Signal;HPM_P1;HPM_P2
2021/04/14 00:01:27;;;;;;;11.70;6.10;;;;;;;;;;4993506;28;20194;-68
2021/04/14 00:03:52;;;;;;;14.93;5.77;;;;;;;;;;4995520;28;20271;-68
2021/04/14 00:06:18;;;;;;;13.30;5.97;;;;;;;;;;4995706;28;20183;-68
2021/04/14 00:08:43;;;;;;;11.57;6.10;;;;;;;;;;4994050;28;20738;-68
2021/04/14 00:11:15;;;;;;;12.70;6.33;;;;;;;;;;4989050;28;20217;-68
2021/04/14 00:13:42;;;;;;;15.03;6.67;;;;;;;;;;5000464;28;20201;-68
2021/04/14 00:16:12;;;;;;;14.83;6.17;;;;;;;;;;4986683;28;20202;-69
2021/04/14 00:18:37;;;;;;;11.33;6.30;;;;;;;;;;4999563;28;20195;-69
2021/04/14 00:21:03;;;;;;;9.30;6.20;;;;;;;;;;4988782;28;20213;-69
2021/04/14 00:23:28;;;;;;;10.53;6.43;;;;;;;;;;4997069;28;20191;-69
2021/04/14 00:25:53;;;;;;;12.27;6.83;;;;;;;;;;4986513;28;20191;-69
2021/04/14 00:28:23;;;;;;;12.53;6.93;;;;;;;;;;4997007;28;20223;-68
2021/04/14 00:30:51;;;;;;;12.70;6.43;;;;;;;;;;4991751;28;20191;-69
2021/04/14 00:33:18;;;;;;;9.77;6.53;;;;;;;;;;5001169;28;20191;-69
2021/04/14 00:35:43;;;;;;;11.07;6.30;;;;;;;;;;4989100;28;20536;-69
2021/04/14 00:38:13;;;;;;;13.77;7.30;;;;;;;;;;4998415;28;20191;-69
2021/04/14 00:40:42;;;;;;;12.70;6.97;;;;;;;;;;4994362;28;20186;-69
2021/04/14 00:43:16;;;;;;;11.43;6.77;;;;;;;;;;4995604;28;20235;-69
2021/04/14 00:45:41;;;;;;;17.47;6.97;;;;;;;;;;4995294;28;20190;-69
2021/04/14 00:48:08;;;;;;;13.50;6.90;;;;;;;;;;4984677;28;20266;-69
2021/04/14 00:50:35;;;;;;;13.63;6.87;;;;;;;;;;4993327;28;20211;-69
2021/04/14 00:53:01;;;;;;;15.20;7.67;;;;;;;;;;4979106;28;20211;-69
2021/04/14 00:55:29;;;;;;;10.40;6.73;;;;;;;;;;4994091;28;20213;-69
2021/04/14 00:57:55;;;;;;;11.50;6.70;;;;;;;;;;4981580;28;20281;-69
2021/04/14 01:00:26;;;;;;;12.47;7.00;;;;;;;;;;4993766;28;20188;-69
2021/04/14 01:02:53;;;;;;;11.77;7.37;;;;;;;;;;4982539;28;20215;-69
2021/04/14 01:05:19;;;;;;;11.47;6.70;;;;;;;;;;4997910;28;20286;-69
2021/04/14 01:07:45;;;;;;;13.37;7.00;;;;;;;;;;4989194;28;20214;-69
2021/04/14 01:10:12;;;;;;;12.53;6.60;;;;;;;;;;4992834;28;20237;-69
2021/04/14 01:12:37;;;;;;;13.77;7.43;;;;;;;;;;4985611;28;20199;-69
2021/04/14 01:15:05;;;;;;;16.03;7.90;;;;;;;;;;4994158;28;20194;-68
2021/04/14 01:17:31;;;;;;;13.07;7.63;;;;;;;;;;4999362;28;20202;-69
2021/04/14 01:19:56;;;;;;;11.97;7.53;;;;;;;;;;4986732;28;20200;-69
2021/04/14 01:22:21;;;;;;;11.40;7.30;;;;;;;;;;4984797;28;20206;-69
2021/04/14 01:24:47;;;;;;;11.17;7.23;;;;;;;;;;4985549;28;20196;-69
2021/04/14 01:27:12;;;;;;;12.23;7.23;;;;;;;;;;4991888;28;20298;-69
2021/04/14 01:29:37;;;;;;;13.40;7.30;;;;;;;;;;4980554;28;20222;-69
2021/04/14 01:32:03;;;;;;;13.70;7.47;;;;;;;;;;5002615;28;20261;-69
2021/04/14 01:34:28;;;;;;;15.60;7.67;;;;;;;;;;4986124;28;20272;-69
2021/04/14 01:36:53;;;;;;;13.07;7.33;;;;;;;;;;4998721;28;20182;-69
2021/04/14 01:39:19;;;;;;;11.60;7.43;;;;;;;;;;4984159;28;20195;-69
2021/04/14 01:41:44;;;;;;;14.13;8.30;;;;;;;;;;4998612;28;20241;-68
2021/04/14 01:44:10;;;;;;;12.73;7.20;;;;;;;;;;4985215;28;20198;-69
2021/04/14 01:46:42;;;;;;;14.87;8.00;;;;;;;;;;4999585;28;20209;-69
2021/04/14 01:49:08;;;;;;;14.77;7.17;;;;;;;;;;4991292;28;20198;-69
2021/04/14 01:51:33;;;;;;;12.47;7.40;;;;;;;;;;4989299;28;20525;-69
2021/04/14 01:53:59;;;;;;;13.77;7.63;;;;;;;;;;4993571;28;20242;-69
2021/04/14 01:56:24;;;;;;;14.83;7.43;;;;;;;;;;4987064;28;20194;-69
2021/04/14 01:58:50;;;;;;;13.97;7.70;;;;;;;;;;4992296;28;20198;-69
2021/04/14 02:01:16;;;;;;;10.60;7.33;;;;;;;;;;4988029;28;20190;-69
2021/04/14 02:03:41;;;;;;;14.30;7.73;;;;;;;;;;4991653;28;20214;-69
2021/04/14 02:06:10;;;;;;;13.90;7.27;;;;;;;;;;4980722;28;20202;-69
2021/04/14 02:08:36;;;;;;;12.90;7.83;;;;;;;;;;4990749;28;20251;-69
2021/04/14 02:11:03;;;;;;;11.93;7.93;;;;;;;;;;4989362;28;20218;-69
2021/04/14 02:13:32;;;;;;;14.27;7.70;;;;;;;;;;4994706;28;20191;-69
2021/04/14 02:15:58;;;;;;;15.67;8.00;;;;;;;;;;4993043;28;20633;-69
2021/04/14 02:18:24;;;;;;;13.13;8.03;;;;;;;;;;4996352;28;20190;-69
2021/04/14 02:20:50;;;;;;;12.83;7.80;;;;;;;;;;4983942;28;20191;-69
2021/04/14 02:23:22;;;;;;;14.43;7.70;;;;;;;;;;4996558;28;20206;-69
2021/04/14 02:25:48;;;;;;;15.10;8.53;;;;;;;;;;4993312;28;20218;-69
2021/04/14 02:28:15;;;;;;;14.57;8.10;;;;;;;;;;4984916;28;20235;-69
2021/04/14 02:30:41;;;;;;;13.47;7.40;;;;;;;;;;4991962;28;20262;-69
2021/04/14 02:33:08;;;;;;;12.90;8.00;;;;;;;;;;4984350;28;20275;-69
2021/04/14 02:35:34;;;;;;;15.23;8.37;;;;;;;;;;4988746;28;20179;-68
2021/04/14 02:38:00;;;;;;;13.40;8.20;;;;;;;;;;4980784;28;20662;-68
2021/04/14 02:40:25;;;;;;;12.10;8.00;;;;;;;;;;4993499;28;20195;-68
2021/04/14 02:42:51;;;;;;;14.93;8.53;;;;;;;;;;4990366;28;20234;-68
2021/04/14 02:45:20;;;;;;;15.43;8.60;;;;;;;;;;4990297;28;20679;-69
2021/04/14 02:47:45;;;;;;;17.33;8.43;;;;;;;;;;4992052;28;20662;-69
2021/04/14 02:50:11;;;;;;;14.07;8.63;;;;;;;;;;4992005;28;20242;-69
2021/04/14 02:52:36;;;;;;;15.63;8.27;;;;;;;;;;4986848;28;20286;-67
2021/04/14 02:55:03;;;;;;;16.50;9.50;;;;;;;;;;4995291;28;20271;-68
2021/04/14 02:57:28;;;;;;;18.30;9.57;;;;;;;;;;4998742;28;20206;-68
2021/04/14 02:59:54;;;;;;;13.57;8.17;;;;;;;;;;4984297;28;20191;-68
2021/04/14 03:02:21;;;;;;;13.73;8.10;;;;;;;;;;4994562;28;20214;-67
2021/04/14 03:04:46;;;;;;;13.30;8.33;;;;;;;;;;4988377;28;20528;-68
2021/04/14 03:07:12;;;;;;;18.43;8.43;;;;;;;;;;5001002;28;20218;-67
2021/04/14 03:09:37;;;;;;;17.10;9.27;;;;;;;;;;4985836;28;20198;-67
2021/04/14 03:12:04;;;;;;;16.10;8.93;;;;;;;;;;5000526;28;20218;-67
2021/04/14 03:14:29;;;;;;;14.50;8.87;;;;;;;;;;4988012;28;20222;-68
2021/04/14 03:16:54;;;;;;;18.03;10.17;;;;;;;;;;4995136;28;20214;-68
2021/04/14 03:19:19;;;;;;;16.87;9.00;;;;;;;;;;4987755;28;20282;-68
2021/04/14 03:21:45;;;;;;;15.43;9.10;;;;;;;;;;5000436;28;21323;-68
2021/04/14 03:24:10;;;;;;;17.77;9.17;;;;;;;;;;4988985;28;20183;-68
2021/04/14 03:26:36;;;;;;;14.97;8.77;;;;;;;;;;5016112;28;20585;-68
2021/04/14 03:29:01;;;;;;;22.10;9.10;;;;;;;;;;4996093;28;20186;-68
2021/04/14 03:31:27;;;;;;;17.17;8.83;;;;;;;;;;4984838;28;20241;-68
2021/04/14 03:33:53;;;;;;;16.60;9.13;;;;;;;;;;4991915;28;20195;-68
2021/04/14 03:36:19;;;;;;;17.03;9.13;;;;;;;;;;4987123;28;20254;-68
2021/04/14 03:38:45;;;;;;;17.40;9.53;;;;;;;;;;4996304;28;20294;-69
2021/04/14 03:41:10;;;;;;;14.37;9.40;;;;;;;;;;4982314;28;20651;-69
2021/04/14 03:43:36;;;;;;;19.00;9.53;;;;;;;;;;4997151;28;21582;-68
2021/04/14 03:46:01;;;;;;;16.47;9.87;;;;;;;;;;4986546;28;20278;-68
2021/04/14 03:48:27;;;;;;;20.23;10.17;;;;;;;;;;4994508;28;20214;-68
2021/04/14 03:50:53;;;;;;;20.83;9.17;;;;;;;;;;4984848;28;20203;-68
2021/04/14 03:53:28;;;;;;;20.23;9.43;;;;;;;;;;4994807;28;20199;-69
2021/04/14 03:56:01;;;;;;;19.27;10.07;;;;;;;;;;4985297;28;20332;-68
2021/04/14 03:58:28;;;;;;;18.97;10.30;;;;;;;;;;4996541;28;20198;-69
2021/04/14 04:00:56;;;;;;;22.83;10.53;;;;;;;;;;4994673;28;20187;-69
2021/04/14 04:03:23;;;;;;;30.67;10.07;;;;;;;;;;4985735;28;20211;-68
2021/04/14 04:05:48;;;;;;;17.60;9.77;;;;;;;;;;4997124;28;20199;-68
2021/04/14 04:08:14;;;;;;;16.57;9.77;;;;;;;;;;4984898;28;20600;-68
2021/04/14 04:10:39;;;;;;;16.07;9.77;;;;;;;;;;5004165;28;20236;-68
2021/04/14 04:13:06;;;;;;;22.37;11.07;;;;;;;;;;4985615;28;20187;-68
2021/04/14 04:15:31;;;;;;;24.93;11.37;;;;;;;;;;5002630;28;20190;-68
2021/04/14 04:17:57;;;;;;;20.03;10.47;;;;;;;;;;4985907;28;20205;-68
2021/04/14 04:20:22;;;;;;;23.23;11.17;;;;;;;;;;4994594;28;20265;-67
2021/04/14 04:22:48;;;;;;;19.77;10.83;;;;;;;;;;4987056;28;20199;-68
2021/04/14 04:25:13;;;;;;;17.80;10.37;;;;;;;;;;4999932;28;20242;-68
2021/04/14 04:27:38;;;;;;;28.03;10.93;;;;;;;;;;4985709;28;20215;-68
2021/04/14 04:30:06;;;;;;;18.17;11.67;;;;;;;;;;4995601;28;20647;-68
2021/04/14 04:32:31;;;;;;;23.60;11.63;;;;;;;;;;4988912;28;20660;-68
2021/04/14 04:34:56;;;;;;;21.50;11.50;;;;;;;;;;4991756;28;20191;-68
2021/04/14 04:37:22;;;;;;;18.17;11.27;;;;;;;;;;4998781;28;20251;-68
2021/04/14 04:39:48;;;;;;;22.30;11.67;;;;;;;;;;4984589;28;20223;-68
2021/04/14 04:42:13;;;;;;;17.20;10.67;;;;;;;;;;4991619;28;20250;-68
2021/04/14 04:44:38;;;;;;;16.87;10.70;;;;;;;;;;4987763;28;20191;-68
2021/04/14 04:47:04;;;;;;;21.47;11.23;;;;;;;;;;4992759;28;20215;-68
2021/04/14 04:49:29;;;;;;;21.73;11.50;;;;;;;;;;4985812;28;20188;-69
2021/04/14 04:51:54;;;;;;;19.07;11.73;;;;;;;;;;4987834;28;20188;-69
2021/04/14 04:54:20;;;;;;;22.57;10.83;;;;;;;;;;4985536;28;20285;-69
2021/04/14 04:56:45;;;;;;;20.13;11.13;;;;;;;;;;4995101;28;20666;-68
2021/04/14 04:59:10;;;;;;;21.87;12.07;;;;;;;;;;4989230;28;20205;-69
2021/04/14 05:01:36;;;;;;;19.43;10.97;;;;;;;;;;4992201;28;20191;-67
2021/04/14 05:04:02;;;;;;;22.93;12.77;;;;;;;;;;4989295;28;20686;-68
2021/04/14 05:06:27;;;;;;;21.27;12.07;;;;;;;;;;4986889;28;20196;-68
2021/04/14 05:08:53;;;;;;;18.80;11.00;;;;;;;;;;4989586;28;20294;-68
2021/04/14 05:11:18;;;;;;;18.23;11.13;;;;;;;;;;4988620;28;20646;-67
2021/04/14 05:13:43;;;;;;;19.93;11.67;;;;;;;;;;4994201;28;20300;-68
2021/04/14 05:16:09;;;;;;;20.43;12.33;;;;;;;;;;4994774;28;20215;-67
2021/04/14 05:18:35;;;;;;;21.40;12.40;;;;;;;;;;4301316;28;10000851;-67
2021/04/14 05:21:02;;;;;;;21.77;11.57;;;;;;;;;;4980430;28;20310;-73
2021/04/14 05:23:27;;;;;;;20.70;11.10;;;;;;;;;;4990376;28;20698;-67
2021/04/14 05:25:53;;;;;;;19.93;11.33;;;;;;;;;;4979714;28;20282;-67
2021/04/14 05:28:21;;;;;;;25.70;11.57;;;;;;;;;;4989329;28;20210;-67
2021/04/14 05:30:46;;;;;;;19.70;11.27;;;;;;;;;;4979484;28;20241;-68
2021/04/14 05:33:12;;;;;;;24.03;11.30;;;;;;;;;;4995612;28;20195;-68
2021/04/14 05:35:38;;;;;;;19.80;11.30;;;;;;;;;;4989198;28;20195;-68
2021/04/14 05:38:04;;;;;;;19.77;11.97;;;;;;;;;;4983282;28;20549;-68
2021/04/14 05:40:30;;;;;;;20.77;11.90;;;;;;;;;;4985790;28;20198;-68
2021/04/14 05:42:55;;;;;;;16.67;10.20;;;;;;;;;;4977862;28;20239;-67
2021/04/14 05:45:29;;;;;;;16.87;11.70;;;;;;;;;;4990916;28;20515;-68
2021/04/14 05:47:55;;;;;;;20.17;12.20;;;;;;;;;;4979874;28;20220;-68
2021/04/14 05:50:24;;;;;;;22.23;11.40;;;;;;;;;;4990578;28;20592;-69
2021/04/14 05:52:50;;;;;;;21.70;11.20;;;;;;;;;;4985946;28;20191;-68
2021/04/14 05:55:16;;;;;;;21.13;11.90;;;;;;;;;;4998426;28;20206;-69
2021/04/14 05:57:41;;;;;;;18.57;10.73;;;;;;;;;;4986305;28;20218;-69
2021/04/14 06:00:11;;;;;;;18.43;10.73;;;;;;;;;;4647578;28;9999781;-69
2021/04/14 06:02:36;;;;;;;20.53;11.47;;;;;;;;;;4980810;28;20546;-69
2021/04/14 06:05:03;;;;;;;18.97;11.10;;;;;;;;;;4985693;28;21012;-68
2021/04/14 06:07:28;;;;;;;24.23;12.17;;;;;;;;;;4977345;28;20223;-68
2021/04/14 06:09:54;;;;;;;24.47;13.53;;;;;;;;;;4985262;28;20241;-68
2021/04/14 06:12:19;;;;;;;23.40;13.93;;;;;;;;;;4987528;28;20202;-68
2021/04/14 06:14:45;;;;;;;19.37;11.93;;;;;;;;;;4976758;28;20191;-68
2021/04/14 06:17:10;;;;;;;20.57;13.13;;;;;;;;;;4985279;28;20224;-68
2021/04/14 06:19:36;;;;;;;25.47;14.57;;;;;;;;;;4986341;28;20218;-67
2021/04/14 06:22:05;;;;;;;20.53;13.17;;;;;;;;;;4992340;28;20553;-67
2021/04/14 06:24:31;;;;;;;23.20;13.27;;;;;;;;;;4987622;28;20322;-68
2021/04/14 06:27:00;;;;;;;19.80;11.57;;;;;;;;;;4991121;28;20326;-68
2021/04/14 06:29:25;;;;;;;23.50;13.70;;;;;;;;;;4989056;28;20202;-68
2021/04/14 06:31:52;;;;;;;26.77;14.57;;;;;;;;;;4993907;28;20546;-68
2021/04/14 06:34:20;;;;;;;24.87;14.37;;;;;;;;;;4985817;28;20277;-68
2021/04/14 06:36:48;;;;;;;24.60;14.43;;;;;;;;;;4989995;28;20230;-68
2021/04/14 06:39:16;;;;;;;23.07;15.40;;;;;;;;;;4985861;28;23945;-68
2021/04/14 06:44:56;;;;;;;25.37;14.83;;;;;;;;;;4989149;28;20286;-69
2021/04/14 06:47:43;;;;;;;25.50;15.00;;;;;;;;;;4995304;28;20682;-69
2021/04/14 06:50:31;;;;;;;24.83;13.70;;;;;;;;;;4988523;28;20195;-69
2021/04/14 06:53:16;;;;;;;24.33;13.43;;;;;;;;;;4996765;28;20196;-69
2021/04/14 06:55:56;;;;;;;20.80;11.83;;;;;;;;;;4989758;28;20274;-69
2021/04/14 06:58:35;;;;;;;18.83;12.13;;;;;;;;;;4996872;28;20306;-69
2021/04/14 07:01:05;;;;;;;18.20;9.50;;;;;;;;;;4988851;28;20186;-69
2021/04/14 07:03:58;;;;;;;14.30;7.67;;;;;;;;;;4996307;28;20211;-69
2021/04/14 07:06:28;;;;;;;16.20;8.27;;;;;;;;;;4980376;28;20203;-69
2021/04/14 07:09:08;;;;;;;16.53;7.70;;;;;;;;;;4993543;28;20602;-68
2021/04/14 07:11:34;;;;;;;20.60;7.23;;;;;;;;;;4985432;28;20643;-68
2021/04/14 07:14:00;;;;;;;11.57;6.63;;;;;;;;;;4996278;28;20195;-68
2021/04/14 07:16:40;;;;;;;10.90;6.00;;;;;;;;;;4990534;28;20213;-68
2021/04/14 07:19:27;;;;;;;11.53;4.90;;;;;;;;;;4990663;28;20635;-68
2021/04/14 07:22:13;;;;;;;12.17;5.20;;;;;;;;;;4986914;28;20199;-68
2021/04/14 07:24:48;;;;;;;7.23;3.40;;;;;;;;;;4991691;28;20197;-68
2021/04/14 07:27:31;;;;;;;6.57;2.60;;;;;;;;;;4989272;28;20230;-69
2021/04/14 07:30:16;;;;;;;7.73;3.23;;;;;;;;;;4993630;28;20202;-69
2021/04/14 07:32:46;;;;;;;8.33;3.00;;;;;;;;;;4987583;28;20550;-69
2021/04/14 07:35:22;;;;;;;8.27;3.03;;;;;;;;;;4993790;28;20282;-69
2021/04/14 07:37:58;;;;;;;8.80;3.10;;;;;;;;;;4985783;28;20531;-69
2021/04/14 07:40:38;;;;;;;8.20;3.17;;;;;;;;;;4995818;28;20206;-69
2021/04/14 07:43:25;;;;;;;10.30;3.60;;;;;;;;;;4987001;28;20242;-69
2021/04/14 07:45:52;;;;;;;8.60;3.83;;;;;;;;;;4994930;28;20209;-69
2021/04/14 07:48:22;;;;;;;7.33;4.53;;;;;;;;;;4982897;28;20214;-69
2021/04/14 07:50:53;;;;;;;13.50;4.80;;;;;;;;;;4989799;28;20712;-69
2021/04/14 07:53:31;;;;;;;13.77;4.63;;;;;;;;;;4990236;28;20685;-70
2021/04/14 07:56:10;;;;;;;9.77;3.60;;;;;;;;;;4999759;28;20214;-68
2021/04/14 07:58:39;;;;;;;8.00;3.30;;;;;;;;;;4990155;28;20313;-69
2021/04/14 08:01:12;;;;;;;9.57;4.50;;;;;;;;;;4994414;28;20645;-68
2021/04/14 08:03:38;;;;;;;10.37;4.17;;;;;;;;;;4986866;28;20526;-68
2021/04/14 08:06:11;;;;;;;9.93;3.47;;;;;;;;;;4997111;28;20216;-70
2021/04/14 08:08:37;;;;;;;11.83;2.80;;;;;;;;;;4990332;28;20214;-68
2021/04/14 08:11:14;;;;;;;3.83;2.13;;;;;;;;;;4997249;28;20206;-69
2021/04/14 08:13:42;;;;;;;6.00;3.10;;;;;;;;;;4992149;28;20179;-69
2021/04/14 08:16:41;;;;;;;5.27;1.80;;;;;;;;;;4988094;28;20610;-69
2021/04/14 08:19:19;;;;;;;4.43;1.00;;;;;;;;;;4987263;28;20196;-69
2021/04/14 08:22:19;;;;;;;4.97;1.40;;;;;;;;;;4993761;28;20214;-69
2021/04/14 08:24:47;;;;;;;4.90;1.53;;;;;;;;;;4982025;28;20199;-68
2021/04/14 08:27:33;;;;;;;3.90;1.53;;;;;;;;;;4991309;28;20772;-68
2021/04/14 08:30:21;;;;;;;5.43;1.60;;;;;;;;;;4991212;28;20298;-68
2021/04/14 08:32:52;;;;;;;3.17;1.50;;;;;;;;;;4992977;28;20666;-69
2021/04/14 08:35:54;;;;;;;2.57;1.50;;;;;;;;;;4990087;28;20190;-69
2021/04/14 08:38:22;;;;;;;8.37;1.97;;;;;;;;;;4964254;28;20597;-69
2021/04/14 08:40:51;;;;;;;2.73;0.90;;;;;;;;;;4980133;28;20549;-69
2021/04/14 08:43:23;;;;;;;4.70;1.33;;;;;;;;;;4995063;28;20231;-69
2021/04/14 08:45:48;;;;;;;4.07;1.30;;;;;;;;;;4977544;28;20195;-69
2021/04/14 08:48:24;;;;;;;5.20;1.70;;;;;;;;;;5002699;28;20209;-69
2021/04/14 08:50:55;;;;;;;3.70;1.37;;;;;;;;;;4986128;28;20619;-69
2021/04/14 08:53:27;;;;;;;3.80;1.30;;;;;;;;;;4992020;28;20312;-69
2021/04/14 08:55:53;;;;;;;6.87;1.50;;;;;;;;;;4982792;28;20222;-69
2021/04/14 08:58:20;;;;;;;5.27;1.40;;;;;;;;;;4995100;28;20188;-69
2021/04/14 09:00:46;;;;;;;2.83;1.10;;;;;;;;;;4987419;28;20226;-69
2021/04/14 09:03:17;;;;;;;3.33;1.10;;;;;;;;;;4986230;28;20650;-69
2021/04/14 09:05:45;;;;;;;3.30;1.50;;;;;;;;;;4993570;28;20272;-69
2021/04/14 09:08:16;;;;;;;3.77;1.30;;;;;;;;;;4987928;28;20265;-68
2021/04/14 09:11:01;;;;;;;6.70;1.17;;;;;;;;;;4994386;28;20222;-69
2021/04/14 09:13:47;;;;;;;5.60;1.30;;;;;;;;;;4988087;28;20187;-69
2021/04/14 09:16:26;;;;;;;2.10;1.17;;;;;;;;;;4992904;28;20281;-69
2021/04/14 09:18:51;;;;;;;4.00;1.37;;;;;;;;;;4984242;28;20183;-69
2021/04/14 09:21:20;;;;;;;3.83;1.70;;;;;;;;;;4991416;28;20662;-69
2021/04/14 09:23:54;;;;;;;4.03;1.63;;;;;;;;;;4985246;28;20246;-70
2021/04/14 09:26:32;;;;;;;4.63;1.30;;;;;;;;;;4991148;28;20642;-69
2021/04/14 09:28:59;;;;;;;2.20;0.83;;;;;;;;;;4987358;28;20477;-69
2021/04/14 09:31:41;;;;;;;2.53;0.90;;;;;;;;;;4990456;28;20195;-69
2021/04/14 09:34:17;;;;;;;4.03;0.93;;;;;;;;;;4982480;28;20199;-69
2021/04/14 09:36:51;;;;;;;3.60;1.13;;;;;;;;;;4992644;28;20622;-69
2021/04/14 09:39:37;;;;;;;4.03;0.87;;;;;;;;;;4987541;28;20602;-69
2021/04/14 09:42:14;;;;;;;1.17;0.60;;;;;;;;;;4989755;28;20243;-70
2021/04/14 09:44:44;;;;;;;3.27;0.87;;;;;;;;;;4982762;28;20201;-69
2021/04/14 09:47:29;;;;;;;7.03;0.87;;;;;;;;;;4994023;28;20221;-69
2021/04/14 09:49:57;;;;;;;1.43;0.80;;;;;;;;;;4978073;28;20191;-69
2021/04/14 09:52:24;;;;;;;1.93;0.80;;;;;;;;;;4993607;28;20645;-69
2021/04/14 09:55:18;;;;;;;2.87;0.53;;;;;;;;;;4980384;28;20630;-69
2021/04/14 09:57:48;;;;;;;2.08;0.63;;;;;;;;;;4967025;28;20214;-69
2021/04/14 10:00:16;;;;;;;2.00;0.43;;;;;;;;;;4981379;28;20240;-69
2021/04/14 10:02:42;;;;;;;2.92;0.55;;;;;;;;;;4992328;28;20203;-69
2021/04/14 10:05:08;;;;;;;3.22;0.50;;;;;;;;;;4979888;28;20198;-69
2021/04/14 10:07:35;;;;;;;4.55;0.77;;;;;;;;;;4993308;28;20229;-69
2021/04/14 10:10:10;;;;;;;1.02;0.50;;;;;;;;;;4980749;28;20191;-69
2021/04/14 10:12:36;;;;;;;4.15;0.93;;;;;;;;;;4991602;28;20674;-69
2021/04/14 10:15:04;;;;;;;1.38;0.47;;;;;;;;;;4979397;28;20215;-69
2021/04/14 10:17:31;;;;;;;2.25;0.60;;;;;;;;;;4995373;28;20175;-69
2021/04/14 10:20:24;;;;;;;4.03;0.70;;;;;;;;;;4984225;28;20187;-69
2021/04/14 10:22:51;;;;;;;1.95;0.70;;;;;;;;;;4991121;28;20241;-69
2021/04/14 10:25:25;;;;;;;1.60;0.60;;;;;;;;;;4992322;28;20586;-68
2021/04/14 10:27:58;;;;;;;4.32;0.70;;;;;;;;;;4991288;28;20191;-69
2021/04/14 10:30:25;;;;;;;3.97;0.80;;;;;;;;;;4988590;28;20898;-69
2021/04/14 10:32:52;;;;;;;5.00;1.27;;;;;;;;;;4989620;28;20191;-69
2021/04/14 10:35:24;;;;;;;3.03;0.80;;;;;;;;;;4993942;28;20183;-69
2021/04/14 10:37:52;;;;;;;1.77;0.80;;;;;;;;;;4987897;28;20192;-70
2021/04/14 10:40:27;;;;;;;0.82;0.52;;;;;;;;;;4988201;28;20183;-69
2021/04/14 10:42:57;;;;;;;7.85;1.00;;;;;;;;;;4989042;28;20238;-69
2021/04/14 10:45:25;;;;;;;4.28;1.13;;;;;;;;;;4989987;28;20191;-69
2021/04/14 10:47:54;;;;;;;3.30;0.75;;;;;;;;;;4983377;28;20211;-70
2021/04/14 10:50:25;;;;;;;2.30;0.82;;;;;;;;;;4987637;28;20226;-70
2021/04/14 10:52:58;;;;;;;4.55;0.85;;;;;;;;;;4983680;28;20311;-69
2021/04/14 10:55:27;;;;;;;2.72;1.08;;;;;;;;;;4992382;28;20187;-70
2021/04/14 10:58:00;;;;;;;4.47;1.67;;;;;;;;;;4983606;28;20342;-69
2021/04/14 11:00:32;;;;;;;7.82;0.90;;;;;;;;;;4990955;28;20202;-69
2021/04/14 11:03:05;;;;;;;5.38;1.00;;;;;;;;;;4987421;28;20321;-70
2021/04/14 11:05:31;;;;;;;1.60;0.45;;;;;;;;;;4997021;28;20553;-70
2021/04/14 11:07:57;;;;;;;3.90;0.50;;;;;;;;;;4987764;28;20269;-69
2021/04/14 11:10:27;;;;;;;2.58;0.38;;;;;;;;;;4992307;28;20226;-69
2021/04/14 11:12:54;;;;;;;2.22;0.60;;;;;;;;;;4990459;28;20275;-70
2021/04/14 11:15:28;;;;;;;2.72;0.40;;;;;;;;;;4994774;28;20274;-68
2021/04/14 11:17:55;;;;;;;2.55;0.50;;;;;;;;;;4997226;28;20178;-69
2021/04/14 11:20:26;;;;;;;2.25;0.65;;;;;;;;;;4294641;28;10000758;-68
2021/04/14 11:22:54;;;;;;;2.00;0.63;;;;;;;;;;4988844;28;20176;-69
2021/04/14 11:25:27;;;;;;;2.15;0.57;;;;;;;;;;4982439;28;20269;-70
2021/04/14 11:28:07;;;;;;;2.63;0.60;;;;;;;;;;4991093;28;20215;-70
2021/04/14 11:30:47;;;;;;;1.85;0.60;;;;;;;;;;4980638;28;20191;-70
2021/04/14 11:33:13;;;;;;;2.38;0.70;;;;;;;;;;4994795;28;21047;-70
2021/04/14 11:35:40;;;;;;;2.17;0.70;;;;;;;;;;4981806;28;20199;-71
2021/04/14 11:38:05;;;;;;;3.53;0.63;;;;;;;;;;4996572;28;20609;-70
2021/04/14 11:40:38;;;;;;;2.53;0.45;;;;;;;;;;4986334;28;20623;-70
2021/04/14 11:43:30;;;;;;;3.30;0.40;;;;;;;;;;4986821;28;20262;-70
2021/04/14 11:46:05;;;;;;;2.45;0.47;;;;;;;;;;4984526;28;20199;-69
2021/04/14 11:48:37;;;;;;;5.53;0.60;;;;;;;;;;4994045;28;20298;-70
2021/04/14 11:51:15;;;;;;;0.88;0.45;;;;;;;;;;4986757;28;20191;-70
2021/04/14 11:53:58;;;;;;;2.63;0.40;;;;;;;;;;4988661;28;20187;-70
2021/04/14 11:56:45;;;;;;;3.38;0.70;;;;;;;;;;4980479;28;20213;-70
2021/04/14 11:59:24;;;;;;;1.83;0.50;;;;;;;;;;4990138;28;20671;-70
2021/04/14 12:02:18;;;;;;;4.43;0.82;;;;;;;;;;4980190;28;20370;-70
2021/04/14 12:04:58;;;;;;;2.50;0.63;;;;;;;;;;4990515;28;20297;-69
2021/04/14 12:07:23;;;;;;;7.85;0.88;;;;;;;;;;4986503;28;20207;-70
2021/04/14 12:09:49;;;;;;;3.17;0.57;;;;;;;;;;4993128;28;20195;-69
2021/04/14 12:12:14;;;;;;;2.28;0.63;;;;;;;;;;4990486;28;20702;-69
2021/04/14 12:14:40;;;;;;;2.90;0.90;;;;;;;;;;4995125;28;20274;-70
2021/04/14 12:17:05;;;;;;;4.25;0.80;;;;;;;;;;4992140;28;20285;-69
2021/04/14 12:19:32;;;;;;;3.63;0.70;;;;;;;;;;4994145;28;20552;-69
2021/04/14 12:21:59;;;;;;;2.97;0.75;;;;;;;;;;4990555;28;20661;-69
2021/04/14 12:24:25;;;;;;;6.13;0.70;;;;;;;;;;4993417;28;20245;-69
2021/04/14 12:26:51;;;;;;;4.07;0.75;;;;;;;;;;4984803;28;31537;-69
2021/04/14 12:29:16;;;;;;;1.05;0.22;;;;;;;;;;4989733;28;20534;-69
2021/04/14 12:31:43;;;;;;;3.70;0.50;;;;;;;;;;4996963;28;20227;-69
2021/04/14 12:34:08;;;;;;;3.40;0.63;;;;;;;;;;4990154;28;20194;-68
2021/04/14 12:36:34;;;;;;;1.75;0.52;;;;;;;;;;4996541;28;20234;-69
2021/04/14 12:39:00;;;;;;;3.70;0.50;;;;;;;;;;4990614;28;20194;-69
2021/04/14 12:41:26;;;;;;;2.17;0.75;;;;;;;;;;4988799;28;20239;-69
2021/04/14 12:43:52;;;;;;;5.50;0.60;;;;;;;;;;4984246;28;20187;-73
2021/04/14 12:46:19;;;;;;;2.28;0.73;;;;;;;;;;4992022;28;20187;-70
2021/04/14 12:48:46;;;;;;;2.97;0.68;;;;;;;;;;4980762;28;20274;-70
2021/04/14 12:51:21;;;;;;;3.13;0.82;;;;;;;;;;4993272;28;20182;-69
2021/04/14 12:53:52;;;;;;;1.90;0.50;;;;;;;;;;4982728;28;20779;-70
2021/04/14 12:56:34;;;;;;;4.05;0.75;;;;;;;;;;4999782;28;20191;-69
2021/04/14 12:59:05;;;;;;;4.75;0.57;;;;;;;;;;4981691;28;20190;-69
2021/04/14 13:01:31;;;;;;;4.15;0.68;;;;;;;;;;4993457;28;20175;-70
2021/04/14 13:04:04;;;;;;;3.38;0.60;;;;;;;;;;4983917;28;20691;-69
2021/04/14 13:06:35;;;;;;;3.42;0.70;;;;;;;;;;4993765;28;20265;-71
2021/04/14 13:09:03;;;;;;;3.08;0.70;;;;;;;;;;4981135;28;20657;-69
2021/04/14 13:11:34;;;;;;;3.25;0.80;;;;;;;;;;4990929;28;20623;-69
2021/04/14 13:13:59;;;;;;;3.50;0.65;;;;;;;;;;4988511;28;20256;-69
2021/04/14 13:16:33;;;;;;;2.92;0.88;;;;;;;;;;4990331;28;20179;-69
2021/04/14 13:18:59;;;;;;;4.60;0.70;;;;;;;;;;4995638;28;20528;-70
2021/04/14 13:21:36;;;;;;;1.90;0.57;;;;;;;;;;4985621;28;20191;-69
2021/04/14 13:24:09;;;;;;;1.65;0.60;;;;;;;;;;4995318;28;20317;-69
2021/04/14 13:26:57;;;;;;;2.50;0.43;;;;;;;;;;4986299;28;20223;-69
2021/04/14 13:29:32;;;;;;;3.35;0.50;;;;;;;;;;4991286;28;20183;-70
2021/04/14 13:32:12;;;;;;;5.15;0.55;;;;;;;;;;4981765;28;20543;-69
2021/04/14 13:34:49;;;;;;;6.28;0.90;;;;;;;;;;4993344;28;20206;-69
2021/04/14 13:37:29;;;;;;;2.83;0.60;;;;;;;;;;4989739;28;20248;-69
2021/04/14 13:40:05;;;;;;;1.83;0.60;;;;;;;;;;4993688;28;20179;-68
2021/04/14 13:42:42;;;;;;;3.00;0.60;;;;;;;;;;4983485;28;20288;-68
2021/04/14 13:45:15;;;;;;;1.38;0.50;;;;;;;;;;4993236;28;20190;-68
2021/04/14 13:48:02;;;;;;;2.97;0.70;;;;;;;;;;4983341;28;20207;-69
2021/04/14 13:50:35;;;;;;;2.00;0.63;;;;;;;;;;4991991;28;20265;-69
2021/04/14 13:53:06;;;;;;;4.60;0.95;;;;;;;;;;4981608;28;20674;-70
2021/04/14 13:55:32;;;;;;;3.15;0.52;;;;;;;;;;4995325;28;20202;-69
2021/04/14 13:58:15;;;;;;;2.05;0.65;;;;;;;;;;4988305;28;20189;-70
2021/04/14 14:00:51;;;;;;;5.50;1.40;;;;;;;;;;4994190;28;20269;-69
2021/04/14 14:03:16;;;;;;;3.20;0.70;;;;;;;;;;4982071;28;20220;-68
2021/04/14 14:05:42;;;;;;;3.08;0.60;;;;;;;;;;4992375;28;20179;-68
2021/04/14 14:08:30;;;;;;;1.60;0.50;;;;;;;;;;4984619;28;20245;-68
2021/04/14 14:10:59;;;;;;;3.38;0.50;;;;;;;;;;4990939;28;20194;-68
2021/04/14 14:13:34;;;;;;;1.48;0.50;;;;;;;;;;4977316;28;20551;-69
2021/04/14 14:16:08;;;;;;;1.80;0.50;;;;;;;;;;4991923;28;20210;-70
2021/04/14 14:18:58;;;;;;;1.88;0.50;;;;;;;;;;4982319;28;20222;-69
2021/04/14 14:21:23;;;;;;;3.65;0.57;;;;;;;;;;4991415;28;20190;-68
2021/04/14 14:23:49;;;;;;;2.03;0.63;;;;;;;;;;4980775;28;20249;-69
2021/04/14 14:26:23;;;;;;;4.55;0.73;;;;;;;;;;4990891;28;20191;-70
2021/04/14 14:28:49;;;;;;;3.40;1.20;;;;;;;;;;4984744;28;20876;-68
2021/04/14 14:31:16;;;;;;;2.20;0.35;;;;;;;;;;4990593;28;20206;-68
2021/04/14 14:33:41;;;;;;;2.50;0.40;;;;;;;;;;4980154;28;20558;-69
2021/04/14 14:36:14;;;;;;;4.50;0.45;;;;;;;;;;4297360;28;10000819;-68
2021/04/14 14:38:59;;;;;;;3.15;0.50;;;;;;;;;;4977179;28;20282;-69
2021/04/14 14:41:28;;;;;;;3.63;0.63;;;;;;;;;;4992777;28;20245;-68
2021/04/14 14:44:01;;;;;;;4.35;0.50;;;;;;;;;;4982943;28;20604;-69
2021/04/14 14:46:33;;;;;;;0.95;0.40;;;;;;;;;;4992194;28;20475;-69
2021/04/14 14:49:04;;;;;;;4.93;0.82;;;;;;;;;;4981738;28;20273;-69
2021/04/14 14:51:30;;;;;;;3.78;0.50;;;;;;;;;;4988341;28;20191;-69
2021/04/14 14:53:59;;;;;;;2.38;0.50;;;;;;;;;;4994996;28;20277;-69